sensor_id;sensor_type;location;lat;lon;timestamp;P1;durP1;ratioP1;P2;durP2;ratioP2
5662;SDS011;2854;42.692;23.364;2022-10-16T00:01:06;4.53;;;4.10;;
5662;SDS011;2854;42.692;23.364;2022-10-16T00:03:31;4.40;;;3.57;;
5662;SDS011;2854;42.692;23.364;2022-10-16T00:05:58;6.57;;;4.90;;
5662;SDS011;2854;42.692;23.364;2022-10-16T00:08:24;4.00;;;3.60;;
5662;SDS011;2854;42.692;23.364;2022-10-16T00:10:49;4.03;;;3.73;;
5662;SDS011;2854;42.692;23.364;2022-10-16T00:13:14;4.73;;;4.07;;
5662;SDS011;2854;42.692;23.364;2022-10-16T00:15:42;4.20;;;3.80;;
5662;SDS011;2854;42.692;23.364;2022-10-16T00:18:09;5.80;;;3.80;;
5662;SDS011;2854;42.692;23.364;2022-10-16T00:20:34;5.13;;;3.60;;
5662;SDS011;2854;42.692;23.364;2022-10-16T00:23:00;3.30;;;3.00;;
5662;SDS011;2854;42.692;23.364;2022-10-16T00:25:25;4.93;;;4.10;;
5662;SDS011;2854;42.692;23.364;2022-10-16T00:27:50;5.60;;;3.73;;
5662;SDS011;2854;42.692;23.364;2022-10-16T00:30:15;5.23;;;3.70;;
5662;SDS011;2854;42.692;23.364;2022-10-16T00:32:41;7.23;;;3.60;;
5662;SDS011;2854;42.692;23.364;2022-10-16T00:35:06;4.63;;;3.83;;
5662;SDS011;2854;42.692;23.364;2022-10-16T00:37:33;5.50;;;4.30;;
5662;SDS011;2854;42.692;23.364;2022-10-16T00:39:58;4.90;;;3.97;;
5662;SDS011;2854;42.692;23.364;2022-10-16T00:42:23;4.20;;;3.80;;
5662;SDS011;2854;42.692;23.364;2022-10-16T00:44:51;5.47;;;4.57;;
5662;SDS011;2854;42.692;23.364;2022-10-16T00:47:29;7.10;;;4.10;;
5662;SDS011;2854;42.692;23.364;2022-10-16T00:50:00;7.13;;;4.33;;
5662;SDS011;2854;42.692;23.364;2022-10-16T00:52:27;6.87;;;5.03;;
5662;SDS011;2854;42.692;23.364;2022-10-16T00:54:52;4.57;;;4.17;;
5662;SDS011;2854;42.692;23.364;2022-10-16T00:57:18;6.13;;;4.83;;
5662;SDS011;2854;42.692;23.364;2022-10-16T00:59:44;6.07;;;4.23;;
5662;SDS011;2854;42.692;23.364;2022-10-16T01:02:12;4.97;;;3.70;;
5662;SDS011;2854;42.692;23.364;2022-10-16T01:04:42;3.80;;;3.43;;
5662;SDS011;2854;42.692;23.364;2022-10-16T01:09:38;3.97;;;3.53;;
5662;SDS011;2854;42.692;23.364;2022-10-16T01:17:06;6.50;;;4.83;;
5662;SDS011;2854;42.692;23.364;2022-10-16T01:22:17;7.70;;;4.30;;
5662;SDS011;2854;42.692;23.364;2022-10-16T01:24:44;5.73;;;4.17;;
5662;SDS011;2854;42.692;23.364;2022-10-16T01:27:14;6.43;;;4.20;;
5662;SDS011;2854;42.692;23.364;2022-10-16T01:32:34;17.73;;;6.20;;
5662;SDS011;2854;42.692;23.364;2022-10-16T01:38:20;7.00;;;4.33;;
5662;SDS011;2854;42.692;23.364;2022-10-16T01:40:38;5.23;;;4.23;;
5662;SDS011;2854;42.692;23.364;2022-10-16T01:43:20;8.10;;;4.20;;
5662;SDS011;2854;42.692;23.364;2022-10-16T01:45:47;9.13;;;4.00;;
5662;SDS011;2854;42.692;23.364;2022-10-16T01:48:13;6.30;;;4.57;;
5662;SDS011;2854;42.692;23.364;2022-10-16T01:50:40;6.67;;;4.17;;
5662;SDS011;2854;42.692;23.364;2022-10-16T01:53:07;6.27;;;5.30;;
5662;SDS011;2854;42.692;23.364;2022-10-16T01:55:38;4.87;;;4.50;;
5662;SDS011;2854;42.692;23.364;2022-10-16T01:58:05;7.40;;;4.20;;
5662;SDS011;2854;42.692;23.364;2022-10-16T02:00:32;5.07;;;4.37;;
5662;SDS011;2854;42.692;23.364;2022-10-16T02:02:58;4.57;;;4.07;;
5662;SDS011;2854;42.692;23.364;2022-10-16T02:05:34;4.47;;;4.00;;
5662;SDS011;2854;42.692;23.364;2022-10-16T02:08:02;7.30;;;4.80;;
5662;SDS011;2854;42.692;23.364;2022-10-16T02:10:27;8.67;;;4.80;;
5662;SDS011;2854;42.692;23.364;2022-10-16T02:13:00;6.50;;;4.63;;
5662;SDS011;2854;42.692;23.364;2022-10-16T02:15:25;9.20;;;6.20;;
5662;SDS011;2854;42.692;23.364;2022-10-16T02:17:51;7.67;;;4.80;;
5662;SDS011;2854;42.692;23.364;2022-10-16T02:20:16;11.07;;;5.67;;
5662;SDS011;2854;42.692;23.364;2022-10-16T02:22:45;9.73;;;5.10;;
5662;SDS011;2854;42.692;23.364;2022-10-16T02:25:15;8.80;;;5.33;;
5662;SDS011;2854;42.692;23.364;2022-10-16T02:28:25;7.80;;;4.73;;
5662;SDS011;2854;42.692;23.364;2022-10-16T02:30:50;5.67;;;4.50;;
5662;SDS011;2854;42.692;23.364;2022-10-16T02:33:16;7.57;;;5.40;;
5662;SDS011;2854;42.692;23.364;2022-10-16T02:35:43;4.97;;;4.57;;
5662;SDS011;2854;42.692;23.364;2022-10-16T02:38:08;5.80;;;5.13;;
5662;SDS011;2854;42.692;23.364;2022-10-16T02:40:34;9.53;;;5.30;;
5662;SDS011;2854;42.692;23.364;2022-10-16T02:43:02;7.07;;;4.60;;
5662;SDS011;2854;42.692;23.364;2022-10-16T02:45:28;6.13;;;4.33;;
5662;SDS011;2854;42.692;23.364;2022-10-16T02:47:54;4.97;;;3.77;;
5662;SDS011;2854;42.692;23.364;2022-10-16T02:50:19;12.43;;;4.83;;
5662;SDS011;2854;42.692;23.364;2022-10-16T02:52:44;7.10;;;5.50;;
5662;SDS011;2854;42.692;23.364;2022-10-16T02:55:10;5.57;;;4.67;;
5662;SDS011;2854;42.692;23.364;2022-10-16T02:57:35;3.90;;;3.33;;
5662;SDS011;2854;42.692;23.364;2022-10-16T03:00:02;5.80;;;4.20;;
5662;SDS011;2854;42.692;23.364;2022-10-16T03:02:28;3.97;;;3.37;;
5662;SDS011;2854;42.692;23.364;2022-10-16T03:04:53;5.80;;;4.27;;
5662;SDS011;2854;42.692;23.364;2022-10-16T03:07:18;8.30;;;5.30;;
5662;SDS011;2854;42.692;23.364;2022-10-16T03:09:44;5.90;;;4.40;;
5662;SDS011;2854;42.692;23.364;2022-10-16T03:12:09;4.23;;;3.83;;
5662;SDS011;2854;42.692;23.364;2022-10-16T03:14:36;7.73;;;3.70;;
5662;SDS011;2854;42.692;23.364;2022-10-16T03:17:02;5.10;;;3.17;;
5662;SDS011;2854;42.692;23.364;2022-10-16T03:19:27;4.23;;;3.83;;
5662;SDS011;2854;42.692;23.364;2022-10-16T03:21:52;2.93;;;2.63;;
5662;SDS011;2854;42.692;23.364;2022-10-16T03:24:17;3.83;;;3.50;;
5662;SDS011;2854;42.692;23.364;2022-10-16T03:26:43;3.47;;;3.17;;
5662;SDS011;2854;42.692;23.364;2022-10-16T03:29:08;7.03;;;3.70;;
5662;SDS011;2854;42.692;23.364;2022-10-16T03:31:33;3.30;;;3.00;;
5662;SDS011;2854;42.692;23.364;2022-10-16T03:33:59;3.53;;;3.23;;
5662;SDS011;2854;42.692;23.364;2022-10-16T03:36:24;4.43;;;3.60;;
5662;SDS011;2854;42.692;23.364;2022-10-16T03:38:49;5.50;;;3.60;;
5662;SDS011;2854;42.692;23.364;2022-10-16T03:41:14;6.73;;;3.00;;
5662;SDS011;2854;42.692;23.364;2022-10-16T03:43:40;5.47;;;3.20;;
5662;SDS011;2854;42.692;23.364;2022-10-16T03:46:05;5.27;;;3.70;;
5662;SDS011;2854;42.692;23.364;2022-10-16T03:48:30;5.10;;;3.73;;
5662;SDS011;2854;42.692;23.364;2022-10-16T03:50:57;5.37;;;3.60;;
5662;SDS011;2854;42.692;23.364;2022-10-16T03:53:22;9.93;;;3.77;;
5662;SDS011;2854;42.692;23.364;2022-10-16T03:55:47;4.30;;;3.90;;
5662;SDS011;2854;42.692;23.364;2022-10-16T03:58:13;4.27;;;3.87;;
5662;SDS011;2854;42.692;23.364;2022-10-16T04:00:41;4.47;;;3.10;;
5662;SDS011;2854;42.692;23.364;2022-10-16T04:03:07;7.77;;;3.67;;
5662;SDS011;2854;42.692;23.364;2022-10-16T04:05:32;3.90;;;3.47;;
5662;SDS011;2854;42.692;23.364;2022-10-16T04:07:57;4.90;;;3.77;;
5662;SDS011;2854;42.692;23.364;2022-10-16T04:10:23;4.23;;;3.93;;
5662;SDS011;2854;42.692;23.364;2022-10-16T04:12:48;8.10;;;3.90;;
5662;SDS011;2854;42.692;23.364;2022-10-16T04:15:13;7.90;;;4.00;;
5662;SDS011;2854;42.692;23.364;2022-10-16T04:17:38;5.20;;;4.03;;
5662;SDS011;2854;42.692;23.364;2022-10-16T04:20:04;8.13;;;4.70;;
5662;SDS011;2854;42.692;23.364;2022-10-16T04:22:29;6.07;;;4.03;;
5662;SDS011;2854;42.692;23.364;2022-10-16T04:24:55;4.80;;;3.47;;
5662;SDS011;2854;42.692;23.364;2022-10-16T04:27:20;7.10;;;4.00;;
5662;SDS011;2854;42.692;23.364;2022-10-16T04:29:45;5.43;;;3.70;;
5662;SDS011;2854;42.692;23.364;2022-10-16T04:32:10;4.30;;;3.90;;
5662;SDS011;2854;42.692;23.364;2022-10-16T04:34:36;6.63;;;4.93;;
5662;SDS011;2854;42.692;23.364;2022-10-16T04:37:03;6.73;;;4.07;;
5662;SDS011;2854;42.692;23.364;2022-10-16T04:39:28;5.00;;;3.90;;
5662;SDS011;2854;42.692;23.364;2022-10-16T04:41:53;4.77;;;3.50;;
5662;SDS011;2854;42.692;23.364;2022-10-16T04:44:18;9.60;;;5.00;;
5662;SDS011;2854;42.692;23.364;2022-10-16T04:46:44;3.90;;;3.47;;
5662;SDS011;2854;42.692;23.364;2022-10-16T04:49:09;9.10;;;5.10;;
5662;SDS011;2854;42.692;23.364;2022-10-16T04:51:34;5.33;;;3.73;;
5662;SDS011;2854;42.692;23.364;2022-10-16T04:53:59;7.97;;;3.80;;
5662;SDS011;2854;42.692;23.364;2022-10-16T04:56:25;7.30;;;4.47;;
5662;SDS011;2854;42.692;23.364;2022-10-16T04:58:50;7.60;;;4.73;;
5662;SDS011;2854;42.692;23.364;2022-10-16T05:01:15;4.50;;;3.27;;
5662;SDS011;2854;42.692;23.364;2022-10-16T05:03:40;5.23;;;3.63;;
5662;SDS011;2854;42.692;23.364;2022-10-16T05:06:06;5.00;;;4.13;;
5662;SDS011;2854;42.692;23.364;2022-10-16T05:08:31;6.77;;;4.70;;
5662;SDS011;2854;42.692;23.364;2022-10-16T05:10:57;5.37;;;4.60;;
5662;SDS011;2854;42.692;23.364;2022-10-16T05:13:22;4.10;;;3.80;;
5662;SDS011;2854;42.692;23.364;2022-10-16T05:15:48;4.33;;;3.57;;
5662;SDS011;2854;42.692;23.364;2022-10-16T05:18:14;6.90;;;4.30;;
5662;SDS011;2854;42.692;23.364;2022-10-16T05:20:39;7.30;;;4.70;;
5662;SDS011;2854;42.692;23.364;2022-10-16T05:23:04;5.37;;;4.47;;
5662;SDS011;2854;42.692;23.364;2022-10-16T05:25:30;4.57;;;3.67;;
5662;SDS011;2854;42.692;23.364;2022-10-16T05:27:55;8.50;;;4.10;;
5662;SDS011;2854;42.692;23.364;2022-10-16T05:30:20;4.13;;;3.77;;
5662;SDS011;2854;42.692;23.364;2022-10-16T05:32:46;4.97;;;3.50;;
5662;SDS011;2854;42.692;23.364;2022-10-16T05:35:11;5.43;;;4.57;;
5662;SDS011;2854;42.692;23.364;2022-10-16T05:37:37;6.50;;;4.10;;
5662;SDS011;2854;42.692;23.364;2022-10-16T05:40:02;4.40;;;4.03;;
5662;SDS011;2854;42.692;23.364;2022-10-16T05:42:28;7.23;;;3.93;;
5662;SDS011;2854;42.692;23.364;2022-10-16T05:44:54;3.63;;;3.33;;
5662;SDS011;2854;42.692;23.364;2022-10-16T05:47:19;8.07;;;4.30;;
5662;SDS011;2854;42.692;23.364;2022-10-16T05:49:45;6.83;;;3.80;;
5662;SDS011;2854;42.692;23.364;2022-10-16T05:52:11;4.60;;;4.20;;
5662;SDS011;2854;42.692;23.364;2022-10-16T05:54:36;7.20;;;5.10;;
5662;SDS011;2854;42.692;23.364;2022-10-16T05:57:01;5.83;;;4.57;;
5662;SDS011;2854;42.692;23.364;2022-10-16T05:59:27;6.77;;;4.00;;
5662;SDS011;2854;42.692;23.364;2022-10-16T06:01:52;6.40;;;4.23;;
5662;SDS011;2854;42.692;23.364;2022-10-16T06:04:18;9.33;;;5.03;;
5662;SDS011;2854;42.692;23.364;2022-10-16T06:06:43;7.97;;;4.50;;
5662;SDS011;2854;42.692;23.364;2022-10-16T06:09:09;8.37;;;4.60;;
5662;SDS011;2854;42.692;23.364;2022-10-16T06:11:34;7.10;;;5.37;;
5662;SDS011;2854;42.692;23.364;2022-10-16T06:14:00;8.13;;;5.23;;
5662;SDS011;2854;42.692;23.364;2022-10-16T06:16:28;12.23;;;6.10;;
5662;SDS011;2854;42.692;23.364;2022-10-16T06:18:53;7.27;;;5.87;;
5662;SDS011;2854;42.692;23.364;2022-10-16T06:21:20;6.87;;;5.40;;
5662;SDS011;2854;42.692;23.364;2022-10-16T06:23:45;7.73;;;5.73;;
5662;SDS011;2854;42.692;23.364;2022-10-16T06:26:14;6.50;;;4.67;;
5662;SDS011;2854;42.692;23.364;2022-10-16T06:28:40;15.83;;;5.13;;
5662;SDS011;2854;42.692;23.364;2022-10-16T06:31:06;8.43;;;6.03;;
5662;SDS011;2854;42.692;23.364;2022-10-16T06:33:32;8.70;;;6.00;;
5662;SDS011;2854;42.692;23.364;2022-10-16T06:36:01;20.17;;;8.23;;
5662;SDS011;2854;42.692;23.364;2022-10-16T06:38:27;9.37;;;5.97;;
5662;SDS011;2854;42.692;23.364;2022-10-16T06:40:53;8.47;;;5.47;;
5662;SDS011;2854;42.692;23.364;2022-10-16T06:43:18;11.40;;;6.83;;
5662;SDS011;2854;42.692;23.364;2022-10-16T06:45:43;11.73;;;7.00;;
5662;SDS011;2854;42.692;23.364;2022-10-16T06:48:14;8.43;;;6.27;;
5662;SDS011;2854;42.692;23.364;2022-10-16T06:50:40;14.03;;;6.90;;
5662;SDS011;2854;42.692;23.364;2022-10-16T06:53:05;7.30;;;5.80;;
5662;SDS011;2854;42.692;23.364;2022-10-16T06:55:30;9.73;;;6.37;;
5662;SDS011;2854;42.692;23.364;2022-10-16T06:57:55;8.23;;;6.47;;
5662;SDS011;2854;42.692;23.364;2022-10-16T07:00:21;10.70;;;5.87;;
5662;SDS011;2854;42.692;23.364;2022-10-16T07:02:46;6.20;;;4.53;;
5662;SDS011;2854;42.692;23.364;2022-10-16T07:05:11;8.40;;;5.13;;
5662;SDS011;2854;42.692;23.364;2022-10-16T07:07:36;4.13;;;3.73;;
5662;SDS011;2854;42.692;23.364;2022-10-16T07:10:02;6.17;;;4.90;;
5662;SDS011;2854;42.692;23.364;2022-10-16T07:12:27;7.90;;;4.90;;
5662;SDS011;2854;42.692;23.364;2022-10-16T07:14:52;4.50;;;4.00;;
5662;SDS011;2854;42.692;23.364;2022-10-16T07:17:19;8.43;;;5.30;;
5662;SDS011;2854;42.692;23.364;2022-10-16T07:19:44;5.57;;;4.80;;
5662;SDS011;2854;42.692;23.364;2022-10-16T07:22:09;11.83;;;5.40;;
5662;SDS011;2854;42.692;23.364;2022-10-16T07:24:35;5.20;;;4.50;;
5662;SDS011;2854;42.692;23.364;2022-10-16T07:27:00;5.67;;;4.13;;
5662;SDS011;2854;42.692;23.364;2022-10-16T07:29:25;8.40;;;5.37;;
5662;SDS011;2854;42.692;23.364;2022-10-16T07:31:51;8.93;;;4.73;;
5662;SDS011;2854;42.692;23.364;2022-10-16T07:34:17;4.80;;;4.37;;
5662;SDS011;2854;42.692;23.364;2022-10-16T07:36:43;10.17;;;4.40;;
5662;SDS011;2854;42.692;23.364;2022-10-16T07:39:08;7.70;;;5.23;;
5662;SDS011;2854;42.692;23.364;2022-10-16T07:41:33;4.27;;;3.87;;
5662;SDS011;2854;42.692;23.364;2022-10-16T07:44:01;4.33;;;3.93;;
5662;SDS011;2854;42.692;23.364;2022-10-16T07:46:27;4.83;;;4.10;;
5662;SDS011;2854;42.692;23.364;2022-10-16T07:48:52;5.47;;;4.37;;
5662;SDS011;2854;42.692;23.364;2022-10-16T07:51:19;4.90;;;4.50;;
5662;SDS011;2854;42.692;23.364;2022-10-16T07:53:44;5.60;;;4.50;;
5662;SDS011;2854;42.692;23.364;2022-10-16T07:56:10;4.27;;;3.97;;
5662;SDS011;2854;42.692;23.364;2022-10-16T07:58:35;5.40;;;5.00;;
5662;SDS011;2854;42.692;23.364;2022-10-16T08:01:06;4.30;;;3.90;;
5662;SDS011;2854;42.692;23.364;2022-10-16T08:03:31;10.83;;;5.47;;
5662;SDS011;2854;42.692;23.364;2022-10-16T08:05:57;7.20;;;4.77;;
5662;SDS011;2854;42.692;23.364;2022-10-16T08:08:23;6.07;;;4.57;;
5662;SDS011;2854;42.692;23.364;2022-10-16T08:10:48;4.93;;;4.43;;
5662;SDS011;2854;42.692;23.364;2022-10-16T08:13:15;5.30;;;4.80;;
5662;SDS011;2854;42.692;23.364;2022-10-16T08:15:43;10.67;;;5.70;;
5662;SDS011;2854;42.692;23.364;2022-10-16T08:18:09;7.57;;;5.30;;
5662;SDS011;2854;42.692;23.364;2022-10-16T08:20:34;5.67;;;5.17;;
5662;SDS011;2854;42.692;23.364;2022-10-16T08:23:00;8.10;;;5.10;;
5662;SDS011;2854;42.692;23.364;2022-10-16T08:25:25;5.67;;;4.63;;
5662;SDS011;2854;42.692;23.364;2022-10-16T08:27:51;4.70;;;4.30;;
5662;SDS011;2854;42.692;23.364;2022-10-16T08:30:19;6.30;;;4.60;;
5662;SDS011;2854;42.692;23.364;2022-10-16T08:32:45;9.60;;;4.40;;
5662;SDS011;2854;42.692;23.364;2022-10-16T08:35:11;3.53;;;3.23;;
5662;SDS011;2854;42.692;23.364;2022-10-16T08:37:36;3.73;;;3.43;;
5662;SDS011;2854;42.692;23.364;2022-10-16T08:40:03;4.23;;;3.60;;
5662;SDS011;2854;42.692;23.364;2022-10-16T08:47:45;5.73;;;4.87;;
5662;SDS011;2854;42.692;23.364;2022-10-16T08:50:13;4.43;;;4.03;;
5662;SDS011;2854;42.692;23.364;2022-10-16T08:52:39;3.73;;;2.67;;
5662;SDS011;2854;42.692;23.364;2022-10-16T08:55:08;2.97;;;2.57;;
5662;SDS011;2854;42.692;23.364;2022-10-16T08:57:41;4.53;;;2.70;;
5662;SDS011;2854;42.692;23.364;2022-10-16T09:00:12;2.70;;;2.30;;
5662;SDS011;2854;42.692;23.364;2022-10-16T09:02:38;2.63;;;1.90;;
5662;SDS011;2854;42.692;23.364;2022-10-16T09:12:42;4.90;;;2.80;;
5662;SDS011;2854;42.692;23.364;2022-10-16T09:15:32;3.20;;;2.90;;
5662;SDS011;2854;42.692;23.364;2022-10-16T09:17:59;3.57;;;2.70;;
5662;SDS011;2854;42.692;23.364;2022-10-16T09:23:17;2.87;;;2.67;;
5662;SDS011;2854;42.692;23.364;2022-10-16T09:25:43;2.33;;;2.23;;
5662;SDS011;2854;42.692;23.364;2022-10-16T09:28:09;2.63;;;2.43;;
5662;SDS011;2854;42.692;23.364;2022-10-16T09:30:35;3.10;;;2.53;;
5662;SDS011;2854;42.692;23.364;2022-10-16T09:33:00;2.80;;;2.60;;
5662;SDS011;2854;42.692;23.364;2022-10-16T09:35:37;3.00;;;2.43;;
5662;SDS011;2854;42.692;23.364;2022-10-16T09:38:02;2.50;;;2.30;;
5662;SDS011;2854;42.692;23.364;2022-10-16T09:40:28;2.77;;;2.57;;
5662;SDS011;2854;42.692;23.364;2022-10-16T09:42:57;2.50;;;2.17;;
5662;SDS011;2854;42.692;23.364;2022-10-16T09:45:26;5.03;;;2.87;;
5662;SDS011;2854;42.692;23.364;2022-10-16T09:47:51;2.80;;;2.50;;
5662;SDS011;2854;42.692;23.364;2022-10-16T09:50:21;2.90;;;2.57;;
5662;SDS011;2854;42.692;23.364;2022-10-16T09:52:47;2.80;;;2.60;;
5662;SDS011;2854;42.692;23.364;2022-10-16T09:55:14;2.60;;;2.40;;
5662;SDS011;2854;42.692;23.364;2022-10-16T09:57:49;4.43;;;2.43;;
5662;SDS011;2854;42.692;23.364;2022-10-16T10:00:15;3.30;;;3.00;;
5662;SDS011;2854;42.692;23.364;2022-10-16T10:02:41;2.90;;;2.63;;
5662;SDS011;2854;42.692;23.364;2022-10-16T10:05:16;3.90;;;2.97;;
5662;SDS011;2854;42.692;23.364;2022-10-16T10:07:43;3.73;;;2.00;;
5662;SDS011;2854;42.692;23.364;2022-10-16T10:10:19;2.13;;;2.03;;
5662;SDS011;2854;42.692;23.364;2022-10-16T10:12:45;2.67;;;2.43;;
5662;SDS011;2854;42.692;23.364;2022-10-16T10:15:11;1.90;;;1.80;;
5662;SDS011;2854;42.692;23.364;2022-10-16T10:17:53;2.83;;;2.53;;
5662;SDS011;2854;42.692;23.364;2022-10-16T10:22:44;2.87;;;2.67;;
5662;SDS011;2854;42.692;23.364;2022-10-16T10:35:34;2.53;;;2.43;;
5662;SDS011;2854;42.692;23.364;2022-10-16T10:45:47;2.13;;;2.03;;
5662;SDS011;2854;42.692;23.364;2022-10-16T10:56:14;2.30;;;2.10;;
5662;SDS011;2854;42.692;23.364;2022-10-16T11:01:16;2.60;;;2.40;;
5662;SDS011;2854;42.692;23.364;2022-10-16T11:06:33;6.80;;;2.37;;
5662;SDS011;2854;42.692;23.364;2022-10-16T11:09:10;4.27;;;2.47;;
5662;SDS011;2854;42.692;23.364;2022-10-16T11:11:41;2.20;;;2.10;;
5662;SDS011;2854;42.692;23.364;2022-10-16T11:17:08;4.27;;;2.43;;
5662;SDS011;2854;42.692;23.364;2022-10-16T11:19:36;3.23;;;2.20;;
5662;SDS011;2854;42.692;23.364;2022-10-16T11:24:44;2.57;;;2.37;;
5662;SDS011;2854;42.692;23.364;2022-10-16T11:27:12;2.50;;;2.40;;
5662;SDS011;2854;42.692;23.364;2022-10-16T11:29:45;1.90;;;1.80;;
5662;SDS011;2854;42.692;23.364;2022-10-16T11:32:22;2.40;;;2.17;;
5662;SDS011;2854;42.692;23.364;2022-10-16T11:34:50;2.17;;;1.67;;
5662;SDS011;2854;42.692;23.364;2022-10-16T11:37:19;2.47;;;2.27;;
5662;SDS011;2854;42.692;23.364;2022-10-16T11:39:45;3.50;;;1.50;;
5662;SDS011;2854;42.692;23.364;2022-10-16T11:42:30;2.57;;;2.37;;
5662;SDS011;2854;42.692;23.364;2022-10-16T11:49:58;1.90;;;1.73;;
5662;SDS011;2854;42.692;23.364;2022-10-16T11:52:25;3.00;;;2.40;;
5662;SDS011;2854;42.692;23.364;2022-10-16T11:54:57;2.37;;;2.17;;
5662;SDS011;2854;42.692;23.364;2022-10-16T11:57:26;2.23;;;2.03;;
5662;SDS011;2854;42.692;23.364;2022-10-16T11:59:55;1.87;;;1.77;;
5662;SDS011;2854;42.692;23.364;2022-10-16T12:02:40;2.23;;;2.13;;
5662;SDS011;2854;42.692;23.364;2022-10-16T12:07:39;2.27;;;2.17;;
5662;SDS011;2854;42.692;23.364;2022-10-16T12:10:23;2.00;;;1.90;;
5662;SDS011;2854;42.692;23.364;2022-10-16T12:12:50;2.20;;;2.07;;
5662;SDS011;2854;42.692;23.364;2022-10-16T12:17:40;1.87;;;1.77;;
5662;SDS011;2854;42.692;23.364;2022-10-16T12:22:37;3.60;;;2.13;;
5662;SDS011;2854;42.692;23.364;2022-10-16T12:25:17;2.17;;;1.97;;
5662;SDS011;2854;42.692;23.364;2022-10-16T12:27:44;2.43;;;2.23;;
5662;SDS011;2854;42.692;23.364;2022-10-16T12:30:14;2.63;;;2.43;;
5662;SDS011;2854;42.692;23.364;2022-10-16T12:32:43;2.20;;;2.00;;
5662;SDS011;2854;42.692;23.364;2022-10-16T12:35:21;2.47;;;2.27;;
5662;SDS011;2854;42.692;23.364;2022-10-16T12:37:47;2.13;;;2.03;;
5662;SDS011;2854;42.692;23.364;2022-10-16T12:42:47;3.23;;;2.37;;
5662;SDS011;2854;42.692;23.364;2022-10-16T12:45:29;2.20;;;2.00;;
5662;SDS011;2854;42.692;23.364;2022-10-16T12:47:56;1.87;;;1.77;;
5662;SDS011;2854;42.692;23.364;2022-10-16T12:50:42;2.00;;;1.90;;
5662;SDS011;2854;42.692;23.364;2022-10-16T12:53:24;6.43;;;4.37;;
5662;SDS011;2854;42.692;23.364;2022-10-16T13:01:20;5.60;;;5.10;;
5662;SDS011;2854;42.692;23.364;2022-10-16T13:16:50;2.87;;;2.67;;
5662;SDS011;2854;42.692;23.364;2022-10-16T13:27:21;3.23;;;2.87;;
5662;SDS011;2854;42.692;23.364;2022-10-16T13:29:53;2.73;;;2.53;;
5662;SDS011;2854;42.692;23.364;2022-10-16T13:32:23;2.67;;;2.20;;
5662;SDS011;2854;42.692;23.364;2022-10-16T13:34:49;2.87;;;2.57;;
5662;SDS011;2854;42.692;23.364;2022-10-16T13:37:17;2.80;;;2.60;;
5662;SDS011;2854;42.692;23.364;2022-10-16T13:39:43;4.43;;;4.03;;
5662;SDS011;2854;42.692;23.364;2022-10-16T13:44:43;2.30;;;2.20;;
5662;SDS011;2854;42.692;23.364;2022-10-16T13:49:41;4.13;;;3.73;;
5662;SDS011;2854;42.692;23.364;2022-10-16T13:52:15;1.80;;;1.70;;
5662;SDS011;2854;42.692;23.364;2022-10-16T13:54:41;1.80;;;1.70;;
5662;SDS011;2854;42.692;23.364;2022-10-16T13:57:07;2.00;;;1.80;;
5662;SDS011;2854;42.692;23.364;2022-10-16T13:59:33;1.80;;;1.70;;
5662;SDS011;2854;42.692;23.364;2022-10-16T14:01:59;1.90;;;1.80;;
5662;SDS011;2854;42.692;23.364;2022-10-16T14:04:25;2.00;;;1.90;;
5662;SDS011;2854;42.692;23.364;2022-10-16T14:06:52;2.40;;;1.90;;
5662;SDS011;2854;42.692;23.364;2022-10-16T14:09:22;2.40;;;1.40;;
5662;SDS011;2854;42.692;23.364;2022-10-16T14:11:50;2.50;;;1.53;;
5662;SDS011;2854;42.692;23.364;2022-10-16T14:14:16;2.20;;;2.00;;
5662;SDS011;2854;42.692;23.364;2022-10-16T14:16:42;1.60;;;1.47;;
5662;SDS011;2854;42.692;23.364;2022-10-16T14:19:24;2.53;;;1.67;;
5662;SDS011;2854;42.692;23.364;2022-10-16T14:21:50;1.43;;;1.33;;
5662;SDS011;2854;42.692;23.364;2022-10-16T14:24:34;1.93;;;1.83;;
5662;SDS011;2854;42.692;23.364;2022-10-16T14:27:00;1.80;;;1.70;;
5662;SDS011;2854;42.692;23.364;2022-10-16T14:29:26;3.00;;;1.93;;
5662;SDS011;2854;42.692;23.364;2022-10-16T14:31:59;2.10;;;1.90;;
5662;SDS011;2854;42.692;23.364;2022-10-16T14:34:25;1.83;;;1.73;;
5662;SDS011;2854;42.692;23.364;2022-10-16T14:36:52;3.50;;;2.80;;
5662;SDS011;2854;42.692;23.364;2022-10-16T14:39:18;1.77;;;1.67;;
5662;SDS011;2854;42.692;23.364;2022-10-16T14:41:45;2.13;;;1.83;;
5662;SDS011;2854;42.692;23.364;2022-10-16T14:44:11;2.03;;;1.83;;
5662;SDS011;2854;42.692;23.364;2022-10-16T14:46:37;2.37;;;1.73;;
5662;SDS011;2854;42.692;23.364;2022-10-16T14:51:34;2.00;;;1.90;;
5662;SDS011;2854;42.692;23.364;2022-10-16T14:53:59;5.00;;;1.63;;
5662;SDS011;2854;42.692;23.364;2022-10-16T14:56:25;2.60;;;1.70;;
5662;SDS011;2854;42.692;23.364;2022-10-16T14:58:53;2.30;;;2.10;;
5662;SDS011;2854;42.692;23.364;2022-10-16T15:01:20;1.77;;;1.60;;
5662;SDS011;2854;42.692;23.364;2022-10-16T15:03:45;2.00;;;1.90;;
5662;SDS011;2854;42.692;23.364;2022-10-16T15:06:11;3.80;;;2.43;;
5662;SDS011;2854;42.692;23.364;2022-10-16T15:08:37;2.50;;;1.97;;
5662;SDS011;2854;42.692;23.364;2022-10-16T15:11:02;1.87;;;1.57;;
5662;SDS011;2854;42.692;23.364;2022-10-16T15:13:27;2.03;;;1.93;;
5662;SDS011;2854;42.692;23.364;2022-10-16T15:15:53;2.13;;;2.00;;
5662;SDS011;2854;42.692;23.364;2022-10-16T15:18:18;2.77;;;2.50;;
5662;SDS011;2854;42.692;23.364;2022-10-16T15:20:50;2.50;;;2.30;;
5662;SDS011;2854;42.692;23.364;2022-10-16T15:23:16;2.17;;;2.07;;
5662;SDS011;2854;42.692;23.364;2022-10-16T15:25:46;1.87;;;1.50;;
5662;SDS011;2854;42.692;23.364;2022-10-16T15:28:12;2.40;;;2.20;;
5662;SDS011;2854;42.692;23.364;2022-10-16T15:30:37;2.60;;;2.40;;
5662;SDS011;2854;42.692;23.364;2022-10-16T15:33:03;4.27;;;2.80;;
5662;SDS011;2854;42.692;23.364;2022-10-16T15:35:28;4.30;;;2.40;;
5662;SDS011;2854;42.692;23.364;2022-10-16T15:37:54;3.57;;;2.67;;
5662;SDS011;2854;42.692;23.364;2022-10-16T15:40:19;3.20;;;2.90;;
5662;SDS011;2854;42.692;23.364;2022-10-16T15:42:45;3.17;;;2.83;;
5662;SDS011;2854;42.692;23.364;2022-10-16T15:45:11;3.07;;;2.80;;
5662;SDS011;2854;42.692;23.364;2022-10-16T15:47:36;3.20;;;3.00;;
5662;SDS011;2854;42.692;23.364;2022-10-16T15:50:02;3.03;;;2.77;;
5662;SDS011;2854;42.692;23.364;2022-10-16T15:52:27;3.73;;;3.23;;
5662;SDS011;2854;42.692;23.364;2022-10-16T15:54:53;7.13;;;2.80;;
5662;SDS011;2854;42.692;23.364;2022-10-16T15:57:19;3.57;;;2.80;;
5662;SDS011;2854;42.692;23.364;2022-10-16T15:59:44;4.37;;;2.90;;
5662;SDS011;2854;42.692;23.364;2022-10-16T16:02:09;3.30;;;2.70;;
5662;SDS011;2854;42.692;23.364;2022-10-16T16:04:34;3.37;;;2.90;;
5662;SDS011;2854;42.692;23.364;2022-10-16T16:07:00;3.73;;;3.00;;
5662;SDS011;2854;42.692;23.364;2022-10-16T16:09:26;2.50;;;2.40;;
5662;SDS011;2854;42.692;23.364;2022-10-16T16:11:53;2.67;;;2.47;;
5662;SDS011;2854;42.692;23.364;2022-10-16T16:14:18;2.63;;;2.43;;
5662;SDS011;2854;42.692;23.364;2022-10-16T16:16:44;3.17;;;2.87;;
5662;SDS011;2854;42.692;23.364;2022-10-16T16:19:09;4.93;;;2.53;;
5662;SDS011;2854;42.692;23.364;2022-10-16T16:21:34;4.20;;;3.10;;
5662;SDS011;2854;42.692;23.364;2022-10-16T16:24:00;4.17;;;3.37;;
5662;SDS011;2854;42.692;23.364;2022-10-16T16:26:26;3.17;;;2.87;;
5662;SDS011;2854;42.692;23.364;2022-10-16T16:28:53;3.87;;;3.20;;
5662;SDS011;2854;42.692;23.364;2022-10-16T16:31:19;4.03;;;3.60;;
5662;SDS011;2854;42.692;23.364;2022-10-16T16:33:44;3.53;;;3.13;;
5662;SDS011;2854;42.692;23.364;2022-10-16T16:36:09;4.37;;;3.93;;
5662;SDS011;2854;42.692;23.364;2022-10-16T16:38:35;4.20;;;3.77;;
5662;SDS011;2854;42.692;23.364;2022-10-16T16:41:10;3.17;;;2.90;;
5662;SDS011;2854;42.692;23.364;2022-10-16T16:43:35;3.83;;;3.43;;
5662;SDS011;2854;42.692;23.364;2022-10-16T16:46:01;8.77;;;3.97;;
5662;SDS011;2854;42.692;23.364;2022-10-16T16:48:26;7.80;;;3.83;;
5662;SDS011;2854;42.692;23.364;2022-10-16T16:50:51;15.03;;;3.87;;
5662;SDS011;2854;42.692;23.364;2022-10-16T16:53:17;4.57;;;3.83;;
5662;SDS011;2854;42.692;23.364;2022-10-16T16:55:42;4.40;;;4.00;;
5662;SDS011;2854;42.692;23.364;2022-10-16T16:58:07;4.00;;;3.60;;
5662;SDS011;2854;42.692;23.364;2022-10-16T17:00:32;3.70;;;3.40;;